Time;durP1;ratioP1;P1;durP2;ratioP2;P2;SDS_P1;SDS_P2;PMS_P1;PMS_P2;Temp;Humidity;BMP_temperature;BMP_pressure;BME280_temperature;BME280_humidity;BME280_pressure;Samples;Min_cycle;Max_cycle;Signal;HPM_P1;HPM_P2
2022/10/25 00:03:07;;;;;;;4.00;0.82;;;;;;;16.42;95.51;100319.47;8274755;28;20509;-49
2022/10/25 00:07:08;;;;;;;10.57;1.13;;;;;;;16.35;96.14;100318.50;8260123;28;20041;-50
2022/10/25 00:11:15;;;;;;;10.18;1.05;;;;;;;16.35;95.97;100313.06;8283539;28;20053;-49
2022/10/25 00:15:16;;;;;;;13.27;1.15;;;;;;;16.21;97.22;100317.41;8288647;28;20522;-50
2022/10/25 00:19:16;;;;;;;6.18;0.95;;;;;;;16.23;96.70;100314.50;8288671;28;20392;-49
2022/10/25 00:23:17;;;;;;;3.95;1.05;;;;;;;16.25;96.40;100312.47;8282914;28;20399;-49
2022/10/25 00:27:17;;;;;;;10.85;1.40;;;;;;;16.17;97.18;100320.69;8292264;28;20620;-49
2022/10/25 00:31:18;;;;;;;4.07;1.00;;;;;;;16.13;97.12;100324.81;8284360;28;20103;-49
2022/10/25 00:35:19;;;;;;;5.72;0.80;;;;;;;16.11;97.35;100332.31;8292493;28;20068;-51
2022/10/25 00:39:20;;;;;;;8.02;1.08;;;;;;;16.16;96.99;100324.47;8291018;28;20420;-51
2022/10/25 00:43:42;;;;;;;11.30;1.00;;;;;;;16.25;96.05;100328.84;8293080;28;20553;-51
2022/10/25 00:47:49;;;;;;;11.02;1.70;;;;;;;16.23;95.93;100330.88;8273005;28;20053;-49
2022/10/25 00:51:57;;;;;;;5.53;1.00;;;;;;;16.20;96.53;100333.97;8288384;28;20038;-53
2022/10/25 00:56:08;;;;;;;3.75;0.73;;;;;;;16.19;96.27;100340.47;8292085;28;20066;-49
2022/10/25 01:00:09;;;;;;;4.97;1.13;;;;;;;16.21;95.86;100338.38;8280770;28;20054;-49
2022/10/25 01:04:14;;;;;;;8.45;1.25;;;;;;;16.22;95.44;100351.00;8287401;28;20366;-50
2022/10/25 01:08:16;;;;;;;6.43;1.20;;;;;;;16.14;95.98;100345.59;8260102;28;20031;-51
2022/10/25 01:12:17;;;;;;;6.47;1.83;;;;;;;16.05;96.89;100349.41;8257275;28;20357;-48
2022/10/25 01:16:31;;;;;;;7.07;1.13;;;;;;;16.00;97.10;100354.53;8258720;28;20097;-49
2022/10/25 01:21:07;;;;;;;6.53;0.77;;;;;;;15.95;97.48;100348.78;8289852;28;20050;-49
2022/10/25 01:30:07;;;;;;;8.73;1.23;;;;;;;15.85;98.22;100359.91;8406034;27;20847;-48
2022/10/25 01:34:17;;;;;;;6.22;1.10;;;;;;;15.80;98.51;100347.84;8402944;27;20052;-48
2022/10/25 01:42:54;;;;;;;4.00;1.00;;;;;;;15.73;99.49;100355.88;8420583;27;20550;-48
2022/10/25 01:47:07;;;;;;;10.52;1.42;;;;;;;15.62;99.99;100365.28;8418891;28;20044;-51
2022/10/25 01:51:10;;;;;;;4.72;0.85;;;;;;;15.52;100.00;100364.66;8419329;28;20086;-48
2022/10/25 01:55:13;;;;;;;2.65;0.70;;;;;;;15.45;100.00;100374.56;8419300;28;20032;-47
2022/10/25 02:03:34;;;;;;;8.10;1.10;;;;;;;15.43;100.00;100368.44;8411613;27;20476;-49
2022/10/25 02:11:50;;;;;;;5.53;1.00;;;;;;;15.39;100.00;100375.25;8404582;27;20345;-49
2022/10/25 02:16:05;;;;;;;4.43;0.90;;;;;;;15.30;100.00;100370.84;8411445;28;20040;-49
2022/10/25 02:20:07;;;;;;;6.45;0.77;;;;;;;15.19;100.00;100378.53;8386680;28;20041;-49
2022/10/25 02:24:16;;;;;;;7.55;1.00;;;;;;;15.24;100.00;100370.66;8384477;28;20063;-51
2022/10/25 02:28:20;;;;;;;7.45;1.10;;;;;;;15.36;100.00;100370.13;8397048;27;20055;-49
2022/10/25 02:32:21;;;;;;;6.80;0.82;;;;;;;15.35;100.00;100363.00;8419571;27;20032;-49
2022/10/25 02:36:23;;;;;;;7.60;1.13;;;;;;;15.38;100.00;100362.69;8418988;27;20311;-51
2022/10/25 02:40:24;;;;;;;6.63;1.20;;;;;;;15.45;100.00;100373.69;8417674;27;20493;-49
2022/10/25 02:44:24;;;;;;;12.82;1.20;;;;;;;15.41;100.00;100375.91;8418545;27;20402;-51
2022/10/25 02:48:25;;;;;;;5.03;1.60;;;;;;;15.36;100.00;100370.13;8418571;27;20047;-50
2022/10/25 02:52:26;;;;;;;7.03;0.90;;;;;;;15.48;100.00;100367.91;8418998;27;20075;-53
2022/10/25 02:56:26;;;;;;;6.30;0.90;;;;;;;15.58;100.00;100374.84;8418507;28;20566;-49
2022/10/25 03:00:28;;;;;;;6.80;1.20;;;;;;;15.55;100.00;100377.94;8417897;27;20033;-49
2022/10/25 03:04:28;;;;;;;8.40;1.10;;;;;;;15.59;100.00;100387.44;8418101;27;20043;-50
2022/10/25 03:08:29;;;;;;;7.97;1.38;;;;;;;15.66;100.00;100377.56;8418774;27;20078;-52
2022/10/25 03:12:30;;;;;;;7.88;1.15;;;;;;;15.70;99.84;100392.53;8417172;28;20521;-49
2022/10/25 03:16:31;;;;;;;3.92;1.30;;;;;;;15.71;99.23;100387.94;8399134;28;20414;-52
2022/10/25 03:20:32;;;;;;;4.80;1.10;;;;;;;15.68;98.95;100386.38;8375868;28;20044;-50
2022/10/25 03:24:32;;;;;;;5.50;1.20;;;;;;;15.60;99.50;100383.72;8361227;28;20045;-51
2022/10/25 03:28:33;;;;;;;6.03;1.00;;;;;;;15.45;100.00;100390.91;8361163;28;20045;-49
2022/10/25 03:32:34;;;;;;;9.00;1.25;;;;;;;15.31;100.00;100382.59;8361788;28;20845;-49
2022/10/25 03:36:34;;;;;;;5.95;0.93;;;;;;;15.27;100.00;100390.25;8361375;28;20033;-53
2022/10/25 03:40:35;;;;;;;4.60;1.23;;;;;;;15.20;100.00;100397.41;8361767;28;20087;-51
2022/10/25 03:44:36;;;;;;;5.35;0.80;;;;;;;15.07;100.00;100402.50;8361342;28;20090;-49
2022/10/25 03:48:36;;;;;;;7.85;1.23;;;;;;;14.95;100.00;100398.44;8361184;28;20044;-51
2022/10/25 03:52:38;;;;;;;7.03;1.50;;;;;;;14.86;100.00;100404.94;8359857;28;20099;-53
2022/10/25 03:56:38;;;;;;;8.05;2.15;;;;;;;14.90;100.00;100411.75;8392519;28;20029;-49
2022/10/25 04:00:39;;;;;;;5.70;1.00;;;;;;;14.83;100.00;100421.63;8360192;28;20521;-49
2022/10/25 04:04:40;;;;;;;5.05;0.95;;;;;;;14.79;100.00;100433.00;8359205;28;20047;-49
2022/10/25 04:08:40;;;;;;;9.10;1.55;;;;;;;14.74;100.00;100428.06;8354602;28;20041;-51
2022/10/25 04:12:41;;;;;;;8.95;1.85;;;;;;;14.97;100.00;100442.69;8355866;28;20486;-52
2022/10/25 04:16:41;;;;;;;8.77;2.13;;;;;;;15.00;100.00;100434.19;8358277;28;20462;-49
2022/10/25 04:20:42;;;;;;;6.88;1.70;;;;;;;14.99;100.00;100432.50;8355747;28;20033;-50
2022/10/25 04:24:43;;;;;;;12.73;2.45;;;;;;;15.00;100.00;100426.03;8335608;28;20160;-50
2022/10/25 04:28:48;;;;;;;8.52;1.70;;;;;;;15.05;100.00;100442.72;8370359;28;20076;-51
2022/10/25 04:32:49;;;;;;;10.93;2.05;;;;;;;15.05;100.00;100461.75;8335405;28;20574;-50
2022/10/25 04:36:50;;;;;;;9.95;2.22;;;;;;;14.97;100.00;100456.31;8325191;28;20402;-50
2022/10/25 04:40:54;;;;;;;8.18;2.20;;;;;;;14.90;100.00;100455.28;8326342;28;20075;-50
2022/10/25 04:44:55;;;;;;;9.60;2.00;;;;;;;14.89;100.00;100464.50;8325393;28;20037;-52
2022/10/25 04:48:56;;;;;;;12.60;2.28;;;;;;;14.86;100.00;100463.97;8374552;28;20040;-49
2022/10/25 04:52:56;;;;;;;10.48;2.47;;;;;;;14.84;100.00;100461.41;8425750;28;20587;-49
2022/10/25 04:56:57;;;;;;;7.55;1.50;;;;;;;14.87;100.00;100462.94;8425821;28;20040;-54
2022/10/25 05:01:00;;;;;;;8.07;1.77;;;;;;;14.90;100.00;100454.44;8362633;28;20044;-50
2022/10/25 05:05:01;;;;;;;12.15;1.95;;;;;;;14.92;100.00;100466.88;8356910;28;20041;-51
2022/10/25 05:09:02;;;;;;;7.82;1.83;;;;;;;14.93;100.00;100457.69;8359096;28;20124;-53
2022/10/25 05:13:03;;;;;;;10.38;2.25;;;;;;;14.96;100.00;100465.50;8358827;28;20418;-52
2022/10/25 05:17:04;;;;;;;9.25;1.92;;;;;;;15.03;100.00;100471.97;8358600;28;20037;-49
2022/10/25 05:21:05;;;;;;;6.75;2.08;;;;;;;15.02;100.00;100480.31;8356548;28;20032;-51
2022/10/25 05:25:06;;;;;;;6.78;1.38;;;;;;;15.03;100.00;100471.97;8356886;28;20060;-51
2022/10/25 05:29:11;;;;;;;8.18;1.95;;;;;;;15.04;100.00;100470.94;8355354;28;20045;-50
2022/10/25 05:33:11;;;;;;;8.32;1.02;;;;;;;15.06;100.00;100476.22;8353336;28;20056;-50
2022/10/25 05:37:12;;;;;;;5.88;1.38;;;;;;;15.10;100.00;100478.41;8352859;28;20152;-53
2022/10/25 05:41:15;;;;;;;9.95;1.80;;;;;;;15.17;100.00;100484.06;8343675;28;20139;-50
2022/10/25 05:45:15;;;;;;;11.85;1.40;;;;;;;15.14;100.00;100482.53;8318049;28;20486;-49
2022/10/25 05:49:16;;;;;;;7.20;1.30;;;;;;;15.12;100.00;100487.28;8354499;28;20041;-50
2022/10/25 05:53:16;;;;;;;10.98;1.30;;;;;;;15.10;100.00;100492.03;8329927;28;20112;-52
2022/10/25 05:57:17;;;;;;;10.18;1.50;;;;;;;15.10;100.00;100491.22;8322475;28;20494;-50
2022/10/25 06:01:20;;;;;;;6.72;1.73;;;;;;;15.13;100.00;100488.97;8357996;28;20036;-50
2022/10/25 06:05:20;;;;;;;6.70;1.58;;;;;;;15.16;100.00;100499.53;8355272;28;20045;-49
2022/10/25 06:09:21;;;;;;;11.60;1.77;;;;;;;15.16;100.00;100502.25;8358086;28;20045;-49
2022/10/25 06:13:21;;;;;;;12.90;1.30;;;;;;;15.17;100.00;100512.16;8357800;28;20048;-49
2022/10/25 06:17:22;;;;;;;7.38;1.40;;;;;;;15.16;100.00;100510.41;8350899;28;20060;-49
2022/10/25 06:21:25;;;;;;;6.82;1.10;;;;;;;15.12;100.00;100509.06;8399763;28;20044;-49
2022/10/25 06:25:26;;;;;;;4.70;1.00;;;;;;;15.10;100.00;100515.72;8423606;28;20046;-49
2022/10/25 06:29:27;;;;;;;7.88;1.50;;;;;;;15.06;100.00;100517.91;8378737;28;20052;-49
2022/10/25 06:33:28;;;;;;;8.43;1.60;;;;;;;15.05;100.00;100527.13;8333239;28;20176;-49
2022/10/25 06:37:29;;;;;;;7.57;1.20;;;;;;;15.02;100.00;100532.03;8324588;28;20088;-49
2022/10/25 06:41:30;;;;;;;7.28;1.48;;;;;;;15.00;100.00;100543.09;8324690;28;20030;-51
2022/10/25 06:45:30;;;;;;;8.45;1.25;;;;;;;15.00;100.00;100543.09;8336939;28;20044;-50
2022/10/25 06:49:31;;;;;;;6.20;1.35;;;;;;;14.94;100.00;100549.22;8337959;28;20399;-49
2022/10/25 06:53:32;;;;;;;5.97;1.40;;;;;;;14.96;100.00;100555.34;8344217;28;20044;-49
2022/10/25 06:57:32;;;;;;;5.82;1.00;;;;;;;15.02;100.00;100557.41;8343573;28;20120;-49
2022/10/25 07:01:33;;;;;;;5.05;1.33;;;;;;;15.19;100.00;100570.00;8363594;28;20102;-49
2022/10/25 07:05:34;;;;;;;9.57;1.40;;;;;;;15.14;100.00;100582.44;8362710;28;20040;-51
2022/10/25 07:09:34;;;;;;;4.15;1.17;;;;;;;14.93;100.00;100580.19;8425426;28;20446;-49
2022/10/25 07:13:35;;;;;;;5.78;1.27;;;;;;;14.75;100.00;100587.63;8373840;28;20402;-49
2022/10/25 07:17:35;;;;;;;11.32;1.90;;;;;;;14.49;100.00;100591.44;8339508;28;20441;-53
2022/10/25 07:21:36;;;;;;;3.38;1.65;;;;;;;14.37;100.00;100598.19;8328057;28;20068;-49
2022/10/25 07:25:37;;;;;;;7.63;2.05;;;;;;;14.47;100.00;100594.31;8329198;28;20398;-50
2022/10/25 07:29:37;;;;;;;6.05;1.63;;;;;;;14.64;100.00;100596.06;8350625;28;20466;-50
2022/10/25 07:33:38;;;;;;;8.40;1.70;;;;;;;14.63;100.00;100599.81;8362279;28;20171;-50
2022/10/25 07:37:38;;;;;;;6.15;1.60;;;;;;;14.61;100.00;100607.28;8361736;28;20063;-52
2022/10/25 07:41:39;;;;;;;8.27;1.70;;;;;;;14.82;100.00;100606.88;8361133;28;20033;-49
2022/10/25 07:45:40;;;;;;;8.05;1.83;;;;;;;15.06;100.00;100613.22;8361755;28;20130;-50
2022/10/25 07:49:40;;;;;;;7.20;1.80;;;;;;;15.21;100.00;100606.09;8362095;28;20041;-49
2022/10/25 07:53:41;;;;;;;5.28;1.30;;;;;;;15.30;100.00;100615.13;8361228;28;20620;-49
2022/10/25 07:57:42;;;;;;;2.70;1.45;;;;;;;15.44;100.00;100618.06;8361553;28;20033;-49
2022/10/25 08:01:42;;;;;;;4.70;1.20;;;;;;;15.63;100.00;100617.75;8361410;28;20487;-50
2022/10/25 08:05:45;;;;;;;9.40;1.58;;;;;;;15.86;100.00;100622.50;8359643;28;20057;-49
2022/10/25 08:09:46;;;;;;;7.90;1.42;;;;;;;15.99;100.00;100633.72;8361284;28;20041;-49
2022/10/25 08:13:48;;;;;;;6.68;1.35;;;;;;;15.97;100.00;100636.63;8360690;28;20036;-49
2022/10/25 08:17:56;;;;;;;7.53;1.17;;;;;;;16.09;100.00;100628.94;8359380;28;20094;-50
2022/10/25 08:21:57;;;;;;;7.32;1.92;;;;;;;16.26;100.00;100630.63;8360638;28;20124;-49
2022/10/25 08:25:59;;;;;;;7.22;1.65;;;;;;;16.35;100.00;100638.59;8360219;28;20524;-49
2022/10/25 08:29:59;;;;;;;6.55;2.28;;;;;;;16.56;100.00;100638.06;8360504;28;20056;-49
2022/10/25 08:34:00;;;;;;;9.05;1.30;;;;;;;16.65;100.00;100628.81;8360237;28;20146;-49
2022/10/25 08:38:03;;;;;;;5.88;1.30;;;;;;;16.76;100.00;100628.41;8360280;28;20033;-53
2022/10/25 08:42:04;;;;;;;5.63;1.00;;;;;;;16.87;100.00;100626.13;8360086;28;20045;-51
2022/10/25 08:46:12;;;;;;;6.72;1.05;;;;;;;17.08;100.00;100626.38;8352471;28;20041;-50
2022/10/25 08:50:21;;;;;;;9.82;1.10;;;;;;;17.51;97.26;100630.41;8355816;28;20048;-50
2022/10/25 08:54:27;;;;;;;4.03;1.20;;;;;;;17.87;95.06;100631.44;8358846;28;20471;-50
2022/10/25 08:58:34;;;;;;;7.82;1.02;;;;;;;17.81;95.79;100632.19;8359239;28;20379;-50
2022/10/25 09:02:53;;;;;;;8.07;0.93;;;;;;;17.56;93.40;100652.56;8359773;28;20128;-50
2022/10/25 09:07:14;;;;;;;6.50;1.00;;;;;;;17.55;94.87;100651.75;8347913;28;20584;-49
2022/10/25 09:11:43;;;;;;;4.00;0.82;;;;;;;17.54;96.01;100657.38;8358918;28;20041;-52
2022/10/25 09:16:00;;;;;;;5.05;1.10;;;;;;;17.53;95.21;100656.53;8359376;28;20044;-53
2022/10/25 09:20:24;;;;;;;5.00;0.75;;;;;;;17.52;93.81;100665.78;8358455;28;20037;-53
2022/10/25 09:24:43;;;;;;;7.38;1.30;;;;;;;17.38;93.41;100668.38;8357485;28;20119;-52
2022/10/25 09:28:54;;;;;;;2.55;1.02;;;;;;;17.36;92.59;100670.44;8358580;28;20037;-52
2022/10/25 09:33:02;;;;;;;4.47;1.05;;;;;;;17.36;92.26;100673.19;8355326;28;20032;-53
2022/10/25 09:37:14;;;;;;;7.00;1.02;;;;;;;17.34;92.68;100678.84;8359089;28;20034;-53
2022/10/25 09:41:31;;;;;;;5.93;0.90;;;;;;;17.39;91.78;100681.84;8390291;28;20044;-51
2022/10/25 09:45:54;;;;;;;3.88;0.68;;;;;;;17.38;87.71;100690.25;8357784;28;20087;-50
2022/10/25 09:50:10;;;;;;;6.05;1.00;;;;;;;17.38;88.05;100680.16;8349588;28;20154;-53
2022/10/25 09:54:26;;;;;;;8.27;2.85;;;;;;;17.24;87.34;100691.03;8358028;28;20433;-53
2022/10/25 09:58:30;;;;;;;3.83;0.80;;;;;;;17.19;88.05;100690.69;8355846;28;20044;-51
2022/10/25 10:02:31;;;;;;;4.13;1.00;;;;;;;17.22;87.52;100696.66;8358019;28;20037;-52
2022/10/25 10:06:36;;;;;;;5.35;1.13;;;;;;;17.28;88.27;100693.22;8357070;28;20077;-51
2022/10/25 10:10:38;;;;;;;7.18;0.98;;;;;;;17.41;88.23;100698.06;8356053;28;20099;-52
2022/10/25 10:14:43;;;;;;;2.30;0.90;;;;;;;17.55;87.25;100692.75;8357906;28;20115;-52
2022/10/25 10:18:43;;;;;;;4.63;0.90;;;;;;;17.67;86.00;100700.50;8357625;28;20033;-53
2022/10/25 10:22:49;;;;;;;4.53;0.60;;;;;;;17.64;86.78;100707.19;8357570;28;20504;-50
2022/10/25 10:26:54;;;;;;;6.78;1.00;;;;;;;17.59;85.98;100706.88;8389640;28;20032;-49
2022/10/25 10:30:57;;;;;;;4.80;1.05;;;;;;;17.47;85.63;100716.53;8358013;28;20041;-49
2022/10/25 10:34:58;;;;;;;4.32;0.70;;;;;;;17.50;87.05;100713.44;8363080;28;20055;-51
2022/10/25 10:39:20;;;;;;;9.65;1.13;;;;;;;17.60;88.78;100722.28;8364211;28;20044;-49
2022/10/25 10:43:28;;;;;;;5.18;1.10;;;;;;;17.71;88.43;100713.66;8363005;28;20460;-49
2022/10/25 10:47:34;;;;;;;5.03;0.70;;;;;;;17.86;87.22;100714.56;8363259;28;20379;-50
2022/10/25 10:51:39;;;;;;;4.50;0.60;;;;;;;17.98;85.60;100715.84;8363818;28;20594;-51
2022/10/25 10:59:57;;;;;;;5.35;0.80;;;;;;;18.03;85.57;100723.50;8414180;27;20473;-51
2022/10/25 11:03:59;;;;;;;2.65;0.70;;;;;;;18.12;85.76;100723.25;8400060;27;20040;-49
2022/10/25 11:12:24;;;;;;;4.97;0.80;;;;;;;18.31;83.39;100721.88;8323973;28;20464;-50
2022/10/25 11:21:01;;;;;;;4.05;0.50;;;;;;;18.63;79.56;100708.75;8353402;27;20489;-53
2022/10/25 11:25:27;;;;;;;7.28;0.70;;;;;;;18.51;79.84;100706.66;8353521;28;20045;-52
2022/10/25 11:29:45;;;;;;;4.97;0.80;;;;;;;18.69;80.41;100705.25;8353738;28;20119;-51
2022/10/25 11:34:14;;;;;;;4.47;0.60;;;;;;;18.96;78.62;100711.94;8353508;28;20030;-50
2022/10/25 11:38:50;;;;;;;4.28;0.52;;;;;;;18.72;80.34;100710.34;8350202;28;20124;-53
2022/10/25 11:47:42;;;;;;;3.33;0.50;;;;;;;18.41;77.32;100717.88;8387289;27;20371;-50
2022/10/25 11:52:22;;;;;;;3.78;0.50;;;;;;;18.28;78.60;100719.50;8364652;28;20037;-53
2022/10/25 11:56:36;;;;;;;2.63;0.40;;;;;;;18.33;80.28;100720.63;8371821;28;20133;-49
2022/10/25 12:01:04;;;;;;;1.90;0.47;;;;;;;18.42;80.46;100719.56;8373648;28;20068;-50
2022/10/25 12:05:34;;;;;;;2.58;0.60;;;;;;;18.69;78.40;100716.19;8366751;28;20041;-50
2022/10/25 12:10:02;;;;;;;1.95;0.50;;;;;;;18.72;79.09;100715.81;8372955;28;20041;-52
2022/10/25 12:14:08;;;;;;;3.65;0.50;;;;;;;18.53;79.46;100710.91;8377777;28;20032;-51
2022/10/25 12:18:15;;;;;;;3.10;0.38;;;;;;;18.52;80.03;100708.34;8382661;28;20040;-53
2022/10/25 12:22:27;;;;;;;3.40;0.93;;;;;;;18.44;78.14;100722.97;8377719;28;20498;-53
2022/10/25 12:26:32;;;;;;;3.17;0.43;;;;;;;18.50;76.20;100710.41;8381103;28;20098;-53
2022/10/25 12:30:34;;;;;;;3.45;0.35;;;;;;;18.55;74.78;100703.38;8380244;28;20391;-53
2022/10/25 12:34:43;;;;;;;5.15;0.50;;;;;;;18.77;74.46;100702.44;8382662;28;20087;-53
2022/10/25 12:38:43;;;;;;;2.55;0.57;;;;;;;18.85;73.93;100710.53;8383684;28;20055;-54
2022/10/25 12:42:50;;;;;;;1.13;0.35;;;;;;;18.78;74.02;100709.59;8381077;28;20041;-53
2022/10/25 12:47:19;;;;;;;5.88;0.70;;;;;;;18.76;74.24;100706.19;8375742;28;20037;-50
2022/10/25 12:51:59;;;;;;;3.55;0.50;;;;;;;18.69;75.19;100699.75;8347000;28;20457;-51
2022/10/25 12:56:38;;;;;;;1.85;0.40;;;;;;;18.55;76.37;100703.38;8353581;28;20120;-49
2022/10/25 13:01:09;;;;;;;4.95;0.57;;;;;;;18.50;77.20;100691.25;8353363;28;20139;-53
2022/10/25 13:05:50;;;;;;;4.43;0.85;;;;;;;18.52;77.16;100681.84;8341353;28;20405;-52
2022/10/25 13:09:51;;;;;;;1.90;0.57;;;;;;;18.69;75.78;100677.84;8332712;28;20499;-52
2022/10/25 13:13:53;;;;;;;4.15;0.77;;;;;;;18.73;76.19;100684.66;8341741;28;20033;-50
2022/10/25 13:18:02;;;;;;;4.82;0.50;;;;;;;18.69;75.53;100688.81;8338951;28;20040;-51
2022/10/25 13:22:10;;;;;;;4.07;0.63;;;;;;;18.61;76.41;100691.66;8336880;28;20445;-51
2022/10/25 13:26:13;;;;;;;1.27;0.40;;;;;;;18.49;76.68;100687.69;8333913;28;20084;-53
2022/10/25 13:34:33;;;;;;;1.98;0.40;;;;;;;18.41;79.03;100685.00;8351327;27;20424;-49
2022/10/25 13:38:36;;;;;;;5.50;0.50;;;;;;;18.56;78.69;100693.25;8339997;28;20048;-50
2022/10/25 13:42:37;;;;;;;4.53;0.73;;;;;;;18.77;76.89;100688.72;8337398;28;20033;-51
2022/10/25 13:46:40;;;;;;;4.80;0.98;;;;;;;18.72;76.63;100688.44;8348794;28;20372;-49
2022/10/25 13:51:00;;;;;;;2.33;0.43;;;;;;;18.46;79.36;100693.53;8346974;28;20053;-49
2022/10/25 13:55:05;;;;;;;4.57;0.85;;;;;;;18.28;79.42;100682.03;8333106;28;20037;-49
2022/10/25 13:59:34;;;;;;;4.25;0.68;;;;;;;18.30;78.70;100690.91;8346900;28;20041;-52
2022/10/25 14:08:21;;;;;;;2.00;0.52;;;;;;;18.57;79.03;100675.78;8411924;27;20463;-52
2022/10/25 14:12:24;;;;;;;3.42;0.50;;;;;;;18.59;77.88;100682.78;8416977;27;20033;-52
2022/10/25 14:16:30;;;;;;;5.28;0.75;;;;;;;18.56;80.09;100674.94;8406161;27;20032;-51
2022/10/25 14:20:33;;;;;;;4.00;0.50;;;;;;;18.49;79.66;100670.41;8410226;27;20068;-53
2022/10/25 14:24:33;;;;;;;2.45;0.60;;;;;;;18.28;77.93;100668.34;8377882;27;20463;-51
2022/10/25 14:28:35;;;;;;;2.20;0.50;;;;;;;18.39;76.42;100676.13;8390810;27;20099;-52
2022/10/25 14:32:35;;;;;;;3.13;0.63;;;;;;;18.58;77.72;100680.22;8398456;27;20071;-49
2022/10/25 14:36:36;;;;;;;4.22;0.50;;;;;;;18.51;76.30;100673.81;8401128;28;20040;-53
2022/10/25 14:40:36;;;;;;;1.25;0.50;;;;;;;18.34;76.85;100653.94;8398706;28;20048;-54
2022/10/25 14:44:47;;;;;;;5.80;0.70;;;;;;;18.11;78.46;100666.81;8400090;27;20185;-55
2022/10/25 14:48:52;;;;;;;5.32;0.82;;;;;;;18.00;79.35;100675.47;8381270;27;20321;-50
2022/10/25 14:52:53;;;;;;;3.20;0.70;;;;;;;17.92;80.95;100661.00;8396091;27;20106;-53
2022/10/25 14:57:02;;;;;;;2.63;0.65;;;;;;;18.13;78.73;100647.47;8399619;27;20132;-52
2022/10/25 15:01:03;;;;;;;5.07;1.20;;;;;;;18.00;79.78;100659.06;8398473;27;20043;-51
2022/10/25 15:05:05;;;;;;;76.50;4.57;;;;;;;17.82;81.16;100661.25;8398129;27;20032;-51
2022/10/25 15:09:18;;;;;;;8.32;1.40;;;;;;;17.67;86.84;100665.81;8398188;27;20044;-52
2022/10/25 15:17:33;;;;;;;10.52;0.70;;;;;;;17.59;88.55;100649.47;8399055;27;20814;-54
2022/10/25 15:21:41;;;;;;;4.72;0.50;;;;;;;17.54;91.30;100644.53;8383885;27;20115;-51
2022/10/25 15:25:42;;;;;;;8.27;1.08;;;;;;;17.31;96.13;100646.41;8396063;27;20048;-50
2022/10/25 15:29:45;;;;;;;3.08;0.47;;;;;;;17.32;95.33;100637.16;8388828;27;20052;-53
2022/10/25 15:33:47;;;;;;;5.30;0.73;;;;;;;17.12;94.08;100635.94;8399886;27;20036;-54
2022/10/25 15:37:47;;;;;;;6.75;0.70;;;;;;;16.87;95.34;100625.31;8410748;27;20064;-54
2022/10/25 15:41:48;;;;;;;2.65;0.43;;;;;;;16.57;98.54;100628.84;8407030;27;20055;-52
2022/10/25 15:45:48;;;;;;;5.38;0.73;;;;;;;16.53;98.42;100628.34;8385945;27;20045;-53
2022/10/25 15:49:52;;;;;;;10.02;1.13;;;;;;;16.50;95.38;100638.78;8394879;27;20555;-50
2022/10/25 15:53:52;;;;;;;3.28;0.68;;;;;;;16.20;99.76;100631.31;8391099;27;20064;-51
2022/10/25 15:57:54;;;;;;;6.28;0.80;;;;;;;15.89;100.00;100643.97;8393854;27;20040;-51
2022/10/25 16:01:54;;;;;;;4.90;0.57;;;;;;;16.02;99.95;100627.94;8389313;27;20047;-50
2022/10/25 16:05:55;;;;;;;3.72;0.70;;;;;;;15.56;100.00;100630.34;8383013;27;20075;-54
2022/10/25 16:09:56;;;;;;;5.32;0.80;;;;;;;15.45;100.00;100619.78;8396508;27;20408;-54
2022/10/25 16:13:56;;;;;;;619.20;60.85;;;;;;;15.32;100.00;100627.59;8392762;27;20048;-51
2022/10/25 16:17:57;;;;;;;528.22;56.88;;;;;;;15.04;100.00;100628.88;8390269;27;20048;-52
2022/10/25 16:21:58;;;;;;;51.45;4.75;;;;;;;14.86;100.00;100625.44;8397271;27;20044;-50
2022/10/25 16:25:59;;;;;;;5.18;1.25;;;;;;;15.03;100.00;100629.88;8378994;27;20395;-50
2022/10/25 16:29:59;;;;;;;10.02;1.20;;;;;;;14.93;100.00;100620.16;8372515;28;20078;-53
2022/10/25 16:34:00;;;;;;;8.48;1.00;;;;;;;15.05;100.00;100622.41;8372565;28;20053;-51
2022/10/25 16:38:01;;;;;;;4.50;0.90;;;;;;;14.76;100.00;100616.53;8362098;28;20036;-51
2022/10/25 16:42:01;;;;;;;3.67;1.20;;;;;;;14.69;100.00;100620.06;8356203;28;20029;-52
2022/10/25 16:46:02;;;;;;;9.32;1.20;;;;;;;14.43;100.00;100612.00;8380327;28;20589;-54
2022/10/25 16:50:03;;;;;;;9.50;1.17;;;;;;;14.68;100.00;100608.34;8346793;28;20040;-52
2022/10/25 16:54:04;;;;;;;4.82;1.30;;;;;;;14.69;100.00;100610.06;8345287;28;20036;-54
2022/10/25 16:58:05;;;;;;;5.80;1.50;;;;;;;14.67;100.00;100605.81;8348532;28;20060;-51
2022/10/25 17:02:15;;;;;;;6.07;1.42;;;;;;;14.59;100.00;100609.34;8346064;28;20044;-55
2022/10/25 17:06:17;;;;;;;11.27;2.38;;;;;;;14.56;100.00;100608.81;8366767;28;20402;-55
2022/10/25 17:10:20;;;;;;;9.40;4.35;;;;;;;14.49;100.00;100602.31;8371773;28;20041;-51
2022/10/25 17:14:20;;;;;;;12.18;4.80;;;;;;;14.61;100.00;100603.75;8377446;28;20048;-51
2022/10/25 17:18:25;;;;;;;18.75;8.07;;;;;;;14.87;100.00;100602.63;8374171;28;20128;-51
2022/10/25 17:22:27;;;;;;;9.80;4.28;;;;;;;14.73;100.00;100595.09;8386678;28;20044;-51
2022/10/25 17:26:27;;;;;;;11.40;5.05;;;;;;;14.59;100.00;100603.91;8385119;27;20406;-54
2022/10/25 17:30:28;;;;;;;8.43;2.83;;;;;;;14.56;100.00;100598.78;8341339;28;20057;-51
2022/10/25 17:34:30;;;;;;;11.48;2.95;;;;;;;14.41;100.00;100599.56;8339162;28;20033;-53
2022/10/25 17:38:31;;;;;;;7.80;2.90;;;;;;;14.28;100.00;100589.16;8339867;28;20050;-52
2022/10/25 17:42:32;;;;;;;10.52;3.83;;;;;;;14.19;100.00;100592.81;8339497;28;20598;-55
2022/10/25 17:46:57;;;;;;;8.52;3.40;;;;;;;14.21;100.00;100598.91;8343110;28;20262;-55
2022/10/25 17:51:05;;;;;;;8.77;4.20;;;;;;;14.18;100.00;100596.50;8360484;28;20118;-52
2022/10/25 17:55:08;;;;;;;8.65;3.22;;;;;;;14.25;100.00;100602.19;8372299;28;20066;-51
2022/10/25 17:59:09;;;;;;;8.90;3.53;;;;;;;14.19;100.00;100591.94;8372680;28;20433;-53
2022/10/25 18:03:10;;;;;;;11.85;5.90;;;;;;;14.07;100.00;100591.38;8370739;28;20060;-51
2022/10/25 18:07:10;;;;;;;12.27;3.35;;;;;;;13.97;100.00;100589.78;8372721;28;20047;-53
2022/10/25 18:11:18;;;;;;;9.82;4.00;;;;;;;13.87;100.00;100599.91;8370368;28;20431;-51
2022/10/25 18:15:18;;;;;;;7.50;2.88;;;;;;;13.86;100.00;100604.47;8361313;28;20040;-54
2022/10/25 18:19:19;;;;;;;11.73;4.30;;;;;;;13.85;100.00;100598.19;8345743;28;20049;-51
2022/10/25 18:23:19;;;;;;;9.38;4.57;;;;;;;13.85;100.00;100602.78;8355352;28;20442;-54
2022/10/25 18:27:20;;;;;;;11.18;4.72;;;;;;;13.91;100.00;100612.16;8348207;28;20039;-52
2022/10/25 18:31:21;;;;;;;9.82;4.05;;;;;;;13.94;100.00;100601.84;8362026;28;20041;-55
2022/10/25 18:35:21;;;;;;;10.38;4.70;;;;;;;13.73;100.00;100598.63;8370328;28;20040;-51
2022/10/25 18:39:22;;;;;;;11.95;5.80;;;;;;;13.53;100.00;100602.53;8370904;28;20462;-52
2022/10/25 18:43:24;;;;;;;6.18;3.67;;;;;;;13.37;100.00;100592.41;8369775;28;20071;-53
2022/10/25 18:47:24;;;;;;;10.43;4.25;;;;;;;12.92;100.00;100593.44;8374276;28;20051;-54
2022/10/25 18:51:27;;;;;;;8.73;3.85;;;;;;;12.72;100.00;100584.56;8361557;28;20284;-51
2022/10/25 18:55:28;;;;;;;12.85;4.13;;;;;;;12.69;100.00;100589.47;8363976;28;20103;-52
2022/10/25 18:59:29;;;;;;;9.00;3.70;;;;;;;12.77;100.00;100582.25;8366713;28;20045;-51
2022/10/25 19:03:30;;;;;;;11.82;5.47;;;;;;;12.64;100.00;100589.91;8363994;28;20116;-51
2022/10/25 19:07:30;;;;;;;7.25;3.95;;;;;;;12.61;100.00;100586.63;8363744;28;20128;-51
2022/10/25 19:11:32;;;;;;;10.57;5.25;;;;;;;12.60;100.00;100590.38;8362743;28;20040;-55
2022/10/25 19:15:33;;;;;;;8.88;3.88;;;;;;;12.59;100.00;100583.25;8380103;28;20041;-52
2022/10/25 19:19:34;;;;;;;9.93;4.05;;;;;;;12.57;100.00;100580.69;8357681;28;20123;-51
2022/10/25 19:23:35;;;;;;;11.70;3.80;;;;;;;12.51;100.00;100580.44;8365773;28;20053;-51
2022/10/25 19:27:36;;;;;;;12.90;3.45;;;;;;;12.55;100.00;100584.53;8355408;28;20037;-54
2022/10/25 19:31:37;;;;;;;8.15;3.33;;;;;;;12.46;100.00;100571.88;8370699;28;20044;-52
2022/10/25 19:35:37;;;;;;;7.35;3.10;;;;;;;12.35;100.00;100585.66;8367674;28;20302;-54
2022/10/25 19:39:39;;;;;;;10.93;3.20;;;;;;;12.27;100.00;100580.13;8361511;28;20109;-54